ADDS METAR Data INFO
IDs: Format: Raw Decoded Include TAF

Data at: 0318 UTC 18 Aug 2017

KF05 180255Z AUTO 14007KT 10SM SCT039 27/21 A3001 RMK AO1 T02740206
KF05 180235Z AUTO 11005KT 10SM SCT039 27/20 A3000 RMK AO1 T02720204
KF05 180215Z AUTO 11005KT 10SM CLR 27/20 A2999 RMK AO1 T02730201
KF05 180155Z AUTO 10005KT 10SM CLR 28/20 A2999 RMK AO1 T02780197
KF05 180135Z AUTO 11004KT 10SM CLR 29/20 A2999 RMK AO1 T02870196
KF05 180115Z AUTO 12005KT 10SM CLR 30/20 A2999 RMK AO1 T02950197
KF05 180055Z AUTO 11007KT 10SM CLR 31/19 A2998 RMK AO1 T03050192
KF05 180035Z AUTO 10007KT 10SM CLR 31/19 A2998 RMK AO1 T03130185
KF05 180015Z AUTO 11008KT 10SM CLR 32/18 A2997 RMK AO1 T03200180
KF05 172355Z AUTO 11009KT 10SM CLR 33/17 A2997 RMK AO1 6//// T03250172
KF05 172335Z AUTO 11008KT 10SM CLR 33/16 A2998 RMK AO1 T03290162
KF05 172315Z AUTO 11009KT 10SM CLR 33/17 A2997 RMK AO1 T03300167
KF05 172255Z AUTO 11009KT 10SM CLR 33/16 A2997 RMK AO1 T03310156
KF05 172235Z AUTO 11010KT 10SM CLR 33/16 A2997 RMK AO1 T03320159
KF05 172215Z AUTO 11010G15KT 10SM CLR 33/16 A2998 RMK AO1 T03340163
KF05 172155Z AUTO 11007KT 10SM CLR 33/16 A2998 RMK AO1 T03340164
KF05 172135Z AUTO 11008KT 10SM CLR 34/17 A2999 RMK AO1 T03350168
KF05 172115Z AUTO 09009KT 10SM CLR 33/17 A2999 RMK AO1 T03330167
KF05 172055Z AUTO 07009KT 10SM CLR 33/17 A3000 RMK AO1 6//// T03330174
KF05 172015Z AUTO 10006KT 10SM CLR 33/17 A3002 RMK AO1 T03310167
KF05 171955Z AUTO 09007KT 10SM CLR 33/17 A3003 RMK AO1 T03290173
KF05 171935Z AUTO 07007KT 030V090 10SM CLR 33/18 A3004 RMK AO1 T03280175
KF05 171915Z AUTO 08006KT 10SM CLR 33/18 A3004 RMK AO1 T03280181
KF05 171855Z AUTO 10005KT 10SM 33/18 A3005 RMK AO1 T03250183
KF05 171835Z AUTO 06006KT 050V140 10SM CLR 32/19 A3005 RMK AO1 T03220187
KF05 171815Z AUTO 08007KT 10SM CLR 32/19 A3005 RMK AO1 T03150193
KF05 171755Z AUTO 06004KT 10SM CLR 31/20 A3004 RMK AO1 T03080203 10308 20215
KF05 171735Z AUTO 04006KT 10SM CLR 30/20 A3005 RMK AO1 T03020204
KF05 171715Z AUTO 05005KT 10SM CLR 30/20 A3006 RMK AO1 T03000200
KF05 171655Z AUTO 07008KT 10SM CLR 30/21 A3005 RMK AO1 T02950206
KF05 171635Z AUTO 01007KT 10SM CLR 29/21 A3006 RMK AO1 T02870206
KF05 171615Z AUTO 03005KT 10SM CLR 28/21 A3005 RMK AO1 T02790208
KF05 171555Z AUTO 36004KT 10SM CLR 27/21 A3005 RMK AO1 T02700209
KF05 171535Z AUTO 02006KT 10SM CLR 26/20 A3005 RMK AO1 T02630203
KF05 171515Z AUTO 35007KT 7SM CLR 26/20 A3005 RMK AO1 T02560204
KF05 171455Z AUTO 33004KT 7SM SCT003 25/21 A3004 RMK AO1 T02460207
KF05 171435Z AUTO 00000KT 5SM SCT003 24/21 A3004 RMK AO1 T02380213
KF05 171415Z AUTO 35003KT 3SM OVC003 23/21 A3004 RMK AO1 T02290210
KF05 171355Z AUTO 00000KT 1/4SM OVC003 23/21 A3003 RMK AO1 T02260207
KF05 171335Z AUTO 00000KT 5SM BKN003 23/21 A3003 RMK AO1 T02250206
KF05 171315Z AUTO 00000KT 7SM SCT005 22/21 A3003 RMK AO1 T02230205
KF05 171255Z AUTO 00000KT 7SM CLR 22/20 A3002 RMK AO1 T02190201
KF05 171235Z AUTO 00000KT 5SM CLR 22/20 A3001 RMK AO1 T02160198
KF05 171215Z AUTO 00000KT 5SM CLR 22/20 A2999 RMK AO1 T02160198
KF05 171155Z AUTO 34004KT 3SM CLR 22/20 A2999 RMK AO1 7//// T02150195 10244 20215
KF05 171135Z AUTO 00000KT 7SM CLR 22/20 A2998 RMK AO1 T02150196
KF05 171115Z AUTO 00000KT 7SM SCT002 22/20 A2997 RMK AO1 T02170196
KF05 171055Z AUTO 00000KT 10SM CLR 22/20 A2996 RMK AO1 T02200196
KF05 171035Z AUTO 14003KT 10SM CLR 22/20 A2996 RMK AO1 T02220197
KF05 171015Z AUTO 00000KT 10SM CLR 22/20 A2996 RMK AO1 LTG DSNT S T02220196
KF05 170955Z AUTO 36003KT 10SM CLR 22/20 A2996 RMK AO1 T02230196
KF05 170935Z AUTO 34004KT 10SM CLR 22/19 A2996 RMK AO1 LTG DSNT SE T02230192
KF05 170915Z AUTO 00000KT 10SM CLR 23/19 A2996 RMK AO1 T02260190
KF05 170855Z AUTO 00000KT 10SM CLR 22/19 A2996 RMK AO1 LTG DSNT SE T02240191
KF05 170835Z AUTO 00000KT 10SM CLR 22/20 A2995 RMK AO1 LTG DSNT SE T02240195
KF05 170815Z AUTO 00000KT 10SM SCT070 23/20 A2995 RMK AO1 LTG DSNT SE T02270195
KF05 170755Z AUTO 13004KT 10SM BKN070 BKN080 23/20 A2995 RMK AO1 LTG DSNT E T02300197
KF05 170735Z AUTO 35005KT 10SM BKN070 23/20 A2994 RMK AO1 T02270200
KF05 170715Z AUTO 34006KT 10SM SCT070 23/20 A2993 RMK AO1 LTG DSNT E AND SE T02250197
KF05 170655Z AUTO 36004KT 10SM SCT070 23/19 A2993 RMK AO1 LTG DSNT E AND SE T02260191
KF05 170635Z AUTO 00000KT 10SM VCTS CLR 23/19 A2993 RMK AO1 LTG DSNT E THRU S T02310186
KF05 170615Z AUTO 07003KT 10SM TS SCT110 24/18 A2993 RMK AO1 LTG DSNT ALQS T02380182
KF05 170555Z AUTO 00000KT 10SM TS 24/18 A2992 RMK AO1 LTG DSNT ALQS P0002 6//// T02440182
KF05 170540Z AUTO 19015KT TS A2994 RMK AO1 LTG DSNT ALQS P0001
KF05 170515Z AUTO 35010KT 7SM TS BKN055 OVC070 26/21 A2989 RMK AO1 LTG DSNT ALQS P0002 T02600205
KF05 170455Z AUTO 35006KT 10SM SCT055 SCT070 SCT080 26/22 A2991 RMK AO1 LTG DSNT NE E AND W T02640219
KF05 170435Z AUTO 00000KT 10SM BKN065 27/23 A2990 RMK AO1 LTG DSNT NE THRU SE T02660227
KF05 170415Z AUTO 00000KT 10SM OVC065 26/23 A2991 RMK AO1 LTG DSNT NE E AND SW T02620225
KF05 170355Z AUTO 00000KT 10SM SCT075 26/22 A2991 RMK AO1 T02630217
KF05 170340Z AUTO 00000KT 10SM CLR 27/21 A2990 RMK AO1 T02660211
KF05 170315Z AUTO 20004KT 10SM CLR 26/21 A2988 RMK AO1 T02620207
KF05 170255Z AUTO 20004KT 10SM CLR 27/20 A2986 RMK AO1 LTG DSNT S 6//// T02670201
KF05 170235Z AUTO 22006KT 10SM SCT095 28/21 A2984 RMK AO1 LTG DSNT NE T02750205
KF05 170215Z AUTO 29007KT 10SM 27/20 A2986 RMK AO1 T02700197
KF05 170135Z AUTO 21007KT 10SM CLR 32/20 A2986 RMK AO1 LTG DSNT SW THRU NW T03160200
KF05 170115Z AUTO 18008KT 10SM VCTS CLR 32/20 A2984 RMK AO1 LTG DSNT SW THRU NW T03230196
KF05 170055Z AUTO 18008KT 10SM CLR 33/20 A2984 RMK AO1 LTG DSNT W T03300195
KF05 170035Z AUTO 17009KT 10SM CLR 34/20 A2983 RMK AO1 LTG DSNT W AND NW T03380195
KF05 170015Z AUTO 17009KT 10SM CLR 35/19 A2983 RMK AO1 LTG DSNT W AND NW T03450191
KF05 162355Z AUTO 17008KT 10SM SCT055 35/19 A2983 RMK AO1 6//// T03510187
KF05 162335Z AUTO 17008KT 10SM SCT055 35/19 A2984 RMK AO1 T03510188
KF05 162315Z AUTO 22008KT 10SM CLR 35/19 A2984 RMK AO1 T03520191
KF05 162255Z AUTO 20007KT 10SM CLR 35/19 A2983 RMK AO1 P0003 T03510189 TSNO
KF05 162235Z AUTO 21009KT 10SM 35/19 A2984 RMK AO1 T03520187
KF05 162215Z AUTO 22010KT 10SM 35/19 A2984 RMK AO1 T03510194
KF05 162155Z AUTO 21010KT 10SM CLR 35/19 A2984 RMK AO1 T03510194
KF05 162135Z AUTO 20009KT 10SM SCT048 SCT060 35/19 A2984 RMK AO1 T03530192
KF05 162115Z AUTO 18011G14KT 10SM SCT046 35/20 A2985 RMK AO1 T03490200
KF05 162055Z AUTO 21011KT 10SM SCT048 35/20 A2985 RMK AO1 6//// T03450197
KF05 162035Z AUTO 22010G17KT 10SM CLR 34/20 A2986 RMK AO1 T03440198
KF05 162015Z AUTO 21012G16KT 10SM CLR 34/20 A2986 RMK AO1 T03410199
KF05 161955Z AUTO 21011KT 10SM CLR 34/20 A2987 RMK AO1 T03350199
KF05 161935Z AUTO 21011KT 10SM CLR 33/20 A2987 RMK AO1 T03320198
KF05 161915Z AUTO 21013G19KT 10SM A2988 RMK AO1
KF05 161855Z AUTO 19012KT 10SM CLR 33/20 A2988 RMK AO1 T03290201
KF05 161835Z AUTO 18012G18KT 10SM CLR 33/20 A2988 RMK AO1 T03280200
KF05 161815Z AUTO 20014G18KT 10SM CLR 33/20 A2988 RMK AO1 T03250200
KF05 161755Z AUTO 19015G20KT 10SM CLR 32/20 A2989 RMK AO1 T03230197 10323 20220
KF05 161735Z AUTO 20012G20KT 10SM CLR 32/20 A2989 RMK AO1 T03190198
KF05 161715Z AUTO 20013G17KT 10SM CLR 32/19 A2990 RMK AO1 T03150194
KF05 161655Z AUTO 19014KT 10SM CLR 31/19 A2989 RMK AO1 T03070194
KF05 161635Z AUTO 20011KT 10SM CLR 30/20 A2991 RMK AO1 T02970199
KF05 161615Z AUTO 22012KT 10SM CLR 29/20 A2991 RMK AO1 T02920200
KF05 161555Z AUTO 21014KT 10SM CLR 29/20 A2991 RMK AO1 T02910199
KF05 161535Z AUTO 21015KT 10SM CLR 29/20 A2991 RMK AO1 T02890197